sensor_id;sensor_type;location;lat;lon;timestamp;temperature;humidity
42031;DHT22;27709;52.036;5.906;2024-02-21T00:02:05;11.50;99.90
42031;DHT22;27709;52.036;5.906;2024-02-21T00:04:31;11.60;99.90
42031;DHT22;27709;52.036;5.906;2024-02-21T00:06:57;11.50;99.90
42031;DHT22;27709;52.036;5.906;2024-02-21T00:09:22;11.60;99.90
42031;DHT22;27709;52.036;5.906;2024-02-21T00:11:48;11.60;99.90
42031;DHT22;27709;52.036;5.906;2024-02-21T00:14:13;11.60;99.90
42031;DHT22;27709;52.036;5.906;2024-02-21T00:16:39;11.60;99.90
42031;DHT22;27709;52.036;5.906;2024-02-21T00:19:05;11.60;99.90
42031;DHT22;27709;52.036;5.906;2024-02-21T00:21:30;11.60;99.90
42031;DHT22;27709;52.036;5.906;2024-02-21T00:23:56;11.60;99.90
42031;DHT22;27709;52.036;5.906;2024-02-21T00:26:21;11.60;99.90
42031;DHT22;27709;52.036;5.906;2024-02-21T00:28:47;11.60;99.90
42031;DHT22;27709;52.036;5.906;2024-02-21T00:31:12;11.60;99.90
42031;DHT22;27709;52.036;5.906;2024-02-21T00:33:38;11.60;99.90
42031;DHT22;27709;52.036;5.906;2024-02-21T00:36:04;11.60;99.90
42031;DHT22;27709;52.036;5.906;2024-02-21T00:38:29;11.60;99.90
42031;DHT22;27709;52.036;5.906;2024-02-21T00:40:55;11.60;99.90
42031;DHT22;27709;52.036;5.906;2024-02-21T00:43:20;11.70;99.90
42031;DHT22;27709;52.036;5.906;2024-02-21T00:45:49;11.60;99.90
42031;DHT22;27709;52.036;5.906;2024-02-21T00:48:15;11.60;99.90
42031;DHT22;27709;52.036;5.906;2024-02-21T00:50:41;11.70;99.90
42031;DHT22;27709;52.036;5.906;2024-02-21T00:53:06;11.60;99.90
42031;DHT22;27709;52.036;5.906;2024-02-21T00:55:32;11.60;99.90
42031;DHT22;27709;52.036;5.906;2024-02-21T00:57:57;11.60;99.90
42031;DHT22;27709;52.036;5.906;2024-02-21T01:00:23;11.60;99.90
42031;DHT22;27709;52.036;5.906;2024-02-21T01:02:48;11.60;99.90
42031;DHT22;27709;52.036;5.906;2024-02-21T01:05:14;11.60;99.90
42031;DHT22;27709;52.036;5.906;2024-02-21T01:07:40;11.60;99.90
42031;DHT22;27709;52.036;5.906;2024-02-21T01:10:06;11.60;99.90
42031;DHT22;27709;52.036;5.906;2024-02-21T01:12:32;11.60;99.90
42031;DHT22;27709;52.036;5.906;2024-02-21T01:14:57;11.60;99.90
42031;DHT22;27709;52.036;5.906;2024-02-21T01:17:23;11.60;99.90
42031;DHT22;27709;52.036;5.906;2024-02-21T01:19:48;11.60;99.90
42031;DHT22;27709;52.036;5.906;2024-02-21T01:22:14;11.60;99.90
42031;DHT22;27709;52.036;5.906;2024-02-21T01:24:41;11.60;99.90
42031;DHT22;27709;52.036;5.906;2024-02-21T01:27:06;11.60;99.90
42031;DHT22;27709;52.036;5.906;2024-02-21T01:29:32;11.60;99.90
42031;DHT22;27709;52.036;5.906;2024-02-21T01:31:58;11.60;99.90
42031;DHT22;27709;52.036;5.906;2024-02-21T01:34:23;11.60;99.90
42031;DHT22;27709;52.036;5.906;2024-02-21T01:36:49;11.60;99.90
42031;DHT22;27709;52.036;5.906;2024-02-21T01:39:15;11.60;99.90
42031;DHT22;27709;52.036;5.906;2024-02-21T01:41:41;11.60;99.90
42031;DHT22;27709;52.036;5.906;2024-02-21T01:44:06;11.60;99.90
42031;DHT22;27709;52.036;5.906;2024-02-21T01:46:32;11.60;99.90
42031;DHT22;27709;52.036;5.906;2024-02-21T01:48:58;11.60;99.90
42031;DHT22;27709;52.036;5.906;2024-02-21T01:51:24;11.70;99.90
42031;DHT22;27709;52.036;5.906;2024-02-21T01:53:51;11.70;99.90
42031;DHT22;27709;52.036;5.906;2024-02-21T01:56:17;11.70;99.90
42031;DHT22;27709;52.036;5.906;2024-02-21T01:58:44;11.70;99.90
42031;DHT22;27709;52.036;5.906;2024-02-21T02:01:10;11.60;99.90
42031;DHT22;27709;52.036;5.906;2024-02-21T02:03:36;11.70;99.90
42031;DHT22;27709;52.036;5.906;2024-02-21T02:06:04;11.60;99.90
42031;DHT22;27709;52.036;5.906;2024-02-21T02:08:30;11.60;99.90
42031;DHT22;27709;52.036;5.906;2024-02-21T02:10:56;11.60;99.90
42031;DHT22;27709;52.036;5.906;2024-02-21T02:13:22;11.60;99.90
42031;DHT22;27709;52.036;5.906;2024-02-21T02:15:48;11.60;99.90
42031;DHT22;27709;52.036;5.906;2024-02-21T02:18:16;11.60;99.90
42031;DHT22;27709;52.036;5.906;2024-02-21T02:20:42;11.60;99.90
42031;DHT22;27709;52.036;5.906;2024-02-21T02:25:44;11.50;99.90
42031;DHT22;27709;52.036;5.906;2024-02-21T02:28:11;11.60;99.90
42031;DHT22;27709;52.036;5.906;2024-02-21T02:30:36;11.50;99.90
42031;DHT22;27709;52.036;5.906;2024-02-21T02:33:03;11.50;99.90
42031;DHT22;27709;52.036;5.906;2024-02-21T02:35:29;11.50;99.90
42031;DHT22;27709;52.036;5.906;2024-02-21T02:37:55;11.50;99.90
42031;DHT22;27709;52.036;5.906;2024-02-21T02:40:20;11.60;99.90
42031;DHT22;27709;52.036;5.906;2024-02-21T02:42:46;11.60;99.90
42031;DHT22;27709;52.036;5.906;2024-02-21T02:45:12;11.60;99.90
42031;DHT22;27709;52.036;5.906;2024-02-21T02:47:39;11.60;99.90
42031;DHT22;27709;52.036;5.906;2024-02-21T02:50:06;11.60;99.90
42031;DHT22;27709;52.036;5.906;2024-02-21T02:52:32;11.50;99.90
42031;DHT22;27709;52.036;5.906;2024-02-21T02:54:58;11.60;99.90
42031;DHT22;27709;52.036;5.906;2024-02-21T02:57:23;11.60;99.90
42031;DHT22;27709;52.036;5.906;2024-02-21T02:59:50;11.50;99.90
42031;DHT22;27709;52.036;5.906;2024-02-21T03:02:16;11.50;99.90
42031;DHT22;27709;52.036;5.906;2024-02-21T03:04:41;11.50;99.90
42031;DHT22;27709;52.036;5.906;2024-02-21T03:07:07;11.50;99.90
42031;DHT22;27709;52.036;5.906;2024-02-21T03:09:33;11.50;99.90
42031;DHT22;27709;52.036;5.906;2024-02-21T03:11:58;11.40;99.90
42031;DHT22;27709;52.036;5.906;2024-02-21T03:14:28;11.40;99.90
42031;DHT22;27709;52.036;5.906;2024-02-21T03:16:54;11.40;99.90
42031;DHT22;27709;52.036;5.906;2024-02-21T03:19:20;11.40;99.90
42031;DHT22;27709;52.036;5.906;2024-02-21T03:21:45;11.50;99.90
42031;DHT22;27709;52.036;5.906;2024-02-21T03:24:11;11.40;99.90
42031;DHT22;27709;52.036;5.906;2024-02-21T03:26:36;11.50;99.90
42031;DHT22;27709;52.036;5.906;2024-02-21T03:29:03;11.50;99.90
42031;DHT22;27709;52.036;5.906;2024-02-21T03:31:29;11.50;99.90
42031;DHT22;27709;52.036;5.906;2024-02-21T03:33:54;11.50;99.90
42031;DHT22;27709;52.036;5.906;2024-02-21T03:36:20;11.50;99.90
42031;DHT22;27709;52.036;5.906;2024-02-21T03:38:45;11.50;99.90
42031;DHT22;27709;52.036;5.906;2024-02-21T03:41:11;11.50;99.90
42031;DHT22;27709;52.036;5.906;2024-02-21T03:43:38;11.50;99.90
42031;DHT22;27709;52.036;5.906;2024-02-21T03:46:04;11.50;99.90
42031;DHT22;27709;52.036;5.906;2024-02-21T03:48:30;11.50;99.90
42031;DHT22;27709;52.036;5.906;2024-02-21T03:50:56;11.50;99.90
42031;DHT22;27709;52.036;5.906;2024-02-21T03:53:21;11.50;99.90
42031;DHT22;27709;52.036;5.906;2024-02-21T03:55:47;11.50;99.90
42031;DHT22;27709;52.036;5.906;2024-02-21T03:58:12;11.50;99.90
42031;DHT22;27709;52.036;5.906;2024-02-21T04:00:38;11.50;99.90
42031;DHT22;27709;52.036;5.906;2024-02-21T04:03:04;11.50;99.90
42031;DHT22;27709;52.036;5.906;2024-02-21T04:05:32;11.40;99.90
42031;DHT22;27709;52.036;5.906;2024-02-21T04:07:57;11.40;99.90
42031;DHT22;27709;52.036;5.906;2024-02-21T04:10:23;11.40;99.90
42031;DHT22;27709;52.036;5.906;2024-02-21T04:12:48;11.40;99.90
42031;DHT22;27709;52.036;5.906;2024-02-21T04:15:16;11.40;99.90
42031;DHT22;27709;52.036;5.906;2024-02-21T04:17:41;11.40;99.90
42031;DHT22;27709;52.036;5.906;2024-02-21T04:20:14;11.40;99.90
42031;DHT22;27709;52.036;5.906;2024-02-21T04:22:40;11.50;99.90
42031;DHT22;27709;52.036;5.906;2024-02-21T04:25:06;11.40;99.90
42031;DHT22;27709;52.036;5.906;2024-02-21T04:27:32;11.40;99.90
42031;DHT22;27709;52.036;5.906;2024-02-21T04:29:57;11.40;99.90
42031;DHT22;27709;52.036;5.906;2024-02-21T04:32:23;11.40;99.90
42031;DHT22;27709;52.036;5.906;2024-02-21T04:34:50;11.40;99.90
42031;DHT22;27709;52.036;5.906;2024-02-21T04:37:15;11.40;99.90
42031;DHT22;27709;52.036;5.906;2024-02-21T04:39:41;11.40;99.90
42031;DHT22;27709;52.036;5.906;2024-02-21T04:42:07;11.40;99.90
42031;DHT22;27709;52.036;5.906;2024-02-21T04:44:32;11.40;99.90
42031;DHT22;27709;52.036;5.906;2024-02-21T04:46:58;11.40;99.90
42031;DHT22;27709;52.036;5.906;2024-02-21T04:49:23;11.40;99.90
42031;DHT22;27709;52.036;5.906;2024-02-21T04:51:49;11.40;99.90
42031;DHT22;27709;52.036;5.906;2024-02-21T04:54:14;11.40;99.90
42031;DHT22;27709;52.036;5.906;2024-02-21T04:56:40;11.40;99.90
42031;DHT22;27709;52.036;5.906;2024-02-21T04:59:05;11.30;99.90
42031;DHT22;27709;52.036;5.906;2024-02-21T05:01:31;11.30;99.90
42031;DHT22;27709;52.036;5.906;2024-02-21T05:03:57;11.30;99.90
42031;DHT22;27709;52.036;5.906;2024-02-21T05:06:22;11.30;99.90
42031;DHT22;27709;52.036;5.906;2024-02-21T05:08:49;11.30;99.90
42031;DHT22;27709;52.036;5.906;2024-02-21T05:11:14;11.40;99.90
42031;DHT22;27709;52.036;5.906;2024-02-21T05:13:40;11.30;99.90
42031;DHT22;27709;52.036;5.906;2024-02-21T05:16:06;11.30;99.90
42031;DHT22;27709;52.036;5.906;2024-02-21T05:18:33;11.30;99.90
42031;DHT22;27709;52.036;5.906;2024-02-21T05:20:59;11.30;99.90
42031;DHT22;27709;52.036;5.906;2024-02-21T05:23:24;11.30;99.90
42031;DHT22;27709;52.036;5.906;2024-02-21T05:25:50;11.30;99.90
42031;DHT22;27709;52.036;5.906;2024-02-21T05:28:16;11.30;99.90
42031;DHT22;27709;52.036;5.906;2024-02-21T05:30:42;11.20;99.90
42031;DHT22;27709;52.036;5.906;2024-02-21T05:33:08;11.30;99.90
42031;DHT22;27709;52.036;5.906;2024-02-21T05:35:35;11.30;99.90
42031;DHT22;27709;52.036;5.906;2024-02-21T05:38:01;11.20;99.90
42031;DHT22;27709;52.036;5.906;2024-02-21T05:40:29;11.20;99.90
42031;DHT22;27709;52.036;5.906;2024-02-21T05:42:55;11.20;99.90
42031;DHT22;27709;52.036;5.906;2024-02-21T05:45:20;11.10;99.90
42031;DHT22;27709;52.036;5.906;2024-02-21T05:47:46;11.20;99.90
42031;DHT22;27709;52.036;5.906;2024-02-21T05:50:11;11.20;99.90
42031;DHT22;27709;52.036;5.906;2024-02-21T05:52:37;11.20;99.90
42031;DHT22;27709;52.036;5.906;2024-02-21T05:55:03;11.20;99.90
42031;DHT22;27709;52.036;5.906;2024-02-21T05:57:28;11.10;99.90
42031;DHT22;27709;52.036;5.906;2024-02-21T05:59:54;11.10;99.90
42031;DHT22;27709;52.036;5.906;2024-02-21T06:02:20;11.10;99.90
42031;DHT22;27709;52.036;5.906;2024-02-21T06:04:45;11.10;99.90
42031;DHT22;27709;52.036;5.906;2024-02-21T06:07:11;11.10;99.90
42031;DHT22;27709;52.036;5.906;2024-02-21T06:09:37;11.10;99.90
42031;DHT22;27709;52.036;5.906;2024-02-21T06:12:03;11.10;99.90
42031;DHT22;27709;52.036;5.906;2024-02-21T06:14:28;11.10;99.90
42031;DHT22;27709;52.036;5.906;2024-02-21T06:16:54;11.10;99.90
42031;DHT22;27709;52.036;5.906;2024-02-21T06:19:19;11.00;99.90
42031;DHT22;27709;52.036;5.906;2024-02-21T06:21:45;11.00;99.90
42031;DHT22;27709;52.036;5.906;2024-02-21T06:24:10;11.00;99.90
42031;DHT22;27709;52.036;5.906;2024-02-21T06:26:38;11.00;99.90
42031;DHT22;27709;52.036;5.906;2024-02-21T06:29:05;10.90;99.90
42031;DHT22;27709;52.036;5.906;2024-02-21T06:31:31;10.90;99.90
42031;DHT22;27709;52.036;5.906;2024-02-21T06:33:57;11.00;99.90
42031;DHT22;27709;52.036;5.906;2024-02-21T06:36:22;11.00;99.90
42031;DHT22;27709;52.036;5.906;2024-02-21T06:38:48;11.00;99.90
42031;DHT22;27709;52.036;5.906;2024-02-21T06:41:20;11.00;99.90
42031;DHT22;27709;52.036;5.906;2024-02-21T06:43:46;11.00;99.90
42031;DHT22;27709;52.036;5.906;2024-02-21T06:46:12;11.00;99.90
42031;DHT22;27709;52.036;5.906;2024-02-21T06:48:47;11.00;99.90
42031;DHT22;27709;52.036;5.906;2024-02-21T06:51:13;11.00;99.90
42031;DHT22;27709;52.036;5.906;2024-02-21T06:53:38;11.00;99.90
42031;DHT22;27709;52.036;5.906;2024-02-21T06:56:04;11.10;99.90
42031;DHT22;27709;52.036;5.906;2024-02-21T06:58:29;11.00;99.90
42031;DHT22;27709;52.036;5.906;2024-02-21T07:00:55;11.00;99.90
42031;DHT22;27709;52.036;5.906;2024-02-21T07:03:20;11.00;99.90
42031;DHT22;27709;52.036;5.906;2024-02-21T07:05:46;11.10;99.90
42031;DHT22;27709;52.036;5.906;2024-02-21T07:08:12;11.10;99.90
42031;DHT22;27709;52.036;5.906;2024-02-21T07:10:37;11.10;99.90
42031;DHT22;27709;52.036;5.906;2024-02-21T07:13:03;11.00;99.90
42031;DHT22;27709;52.036;5.906;2024-02-21T07:15:28;11.10;99.90
42031;DHT22;27709;52.036;5.906;2024-02-21T07:17:56;11.10;99.90
42031;DHT22;27709;52.036;5.906;2024-02-21T07:20:21;11.10;99.90
42031;DHT22;27709;52.036;5.906;2024-02-21T07:22:47;11.10;99.90
42031;DHT22;27709;52.036;5.906;2024-02-21T07:25:13;11.10;99.90
42031;DHT22;27709;52.036;5.906;2024-02-21T07:27:38;11.10;99.90
42031;DHT22;27709;52.036;5.906;2024-02-21T07:30:05;11.10;99.90
42031;DHT22;27709;52.036;5.906;2024-02-21T07:32:31;11.10;99.90
42031;DHT22;27709;52.036;5.906;2024-02-21T07:34:56;11.10;99.90
42031;DHT22;27709;52.036;5.906;2024-02-21T07:37:22;11.10;99.90
42031;DHT22;27709;52.036;5.906;2024-02-21T07:39:48;11.20;99.90
42031;DHT22;27709;52.036;5.906;2024-02-21T07:42:13;11.20;99.90
42031;DHT22;27709;52.036;5.906;2024-02-21T07:44:39;11.20;99.90
42031;DHT22;27709;52.036;5.906;2024-02-21T07:47:04;11.10;99.90
42031;DHT22;27709;52.036;5.906;2024-02-21T07:49:32;11.10;99.90
42031;DHT22;27709;52.036;5.906;2024-02-21T07:52:00;11.20;99.90
42031;DHT22;27709;52.036;5.906;2024-02-21T07:54:25;11.20;99.90
42031;DHT22;27709;52.036;5.906;2024-02-21T07:56:51;11.20;99.90
42031;DHT22;27709;52.036;5.906;2024-02-21T07:59:16;11.20;99.90
42031;DHT22;27709;52.036;5.906;2024-02-21T08:01:42;11.30;99.90
42031;DHT22;27709;52.036;5.906;2024-02-21T08:04:10;11.20;99.90
42031;DHT22;27709;52.036;5.906;2024-02-21T08:06:35;11.20;99.90
42031;DHT22;27709;52.036;5.906;2024-02-21T08:09:01;11.20;99.90
42031;DHT22;27709;52.036;5.906;2024-02-21T08:11:26;11.30;99.90
42031;DHT22;27709;52.036;5.906;2024-02-21T08:13:52;11.40;99.90
42031;DHT22;27709;52.036;5.906;2024-02-21T08:16:18;11.50;99.90
42031;DHT22;27709;52.036;5.906;2024-02-21T08:18:46;11.40;99.90
42031;DHT22;27709;52.036;5.906;2024-02-21T08:21:12;11.40;99.90
42031;DHT22;27709;52.036;5.906;2024-02-21T08:23:37;11.50;99.90
42031;DHT22;27709;52.036;5.906;2024-02-21T08:26:03;11.50;99.90
42031;DHT22;27709;52.036;5.906;2024-02-21T08:28:29;11.50;99.90
42031;DHT22;27709;52.036;5.906;2024-02-21T08:30:56;11.60;99.90
42031;DHT22;27709;52.036;5.906;2024-02-21T08:33:22;11.50;99.90
42031;DHT22;27709;52.036;5.906;2024-02-21T08:35:51;11.60;99.90
42031;DHT22;27709;52.036;5.906;2024-02-21T08:38:17;11.70;99.90
42031;DHT22;27709;52.036;5.906;2024-02-21T08:40:42;11.70;99.90
42031;DHT22;27709;52.036;5.906;2024-02-21T08:43:08;11.80;99.90
42031;DHT22;27709;52.036;5.906;2024-02-21T08:45:35;11.70;99.90
42031;DHT22;27709;52.036;5.906;2024-02-21T08:48:00;11.80;99.90
42031;DHT22;27709;52.036;5.906;2024-02-21T09:03:08;11.60;99.90
42031;DHT22;27709;52.036;5.906;2024-02-21T09:05:34;11.70;99.90
42031;DHT22;27709;52.036;5.906;2024-02-21T09:08:00;11.80;99.90
42031;DHT22;27709;52.036;5.906;2024-02-21T09:10:26;11.80;99.90
42031;DHT22;27709;52.036;5.906;2024-02-21T09:12:51;12.00;99.90
42031;DHT22;27709;52.036;5.906;2024-02-21T09:15:17;12.10;99.90
42031;DHT22;27709;52.036;5.906;2024-02-21T09:17:42;12.10;99.90
42031;DHT22;27709;52.036;5.906;2024-02-21T09:20:12;12.00;99.90
42031;DHT22;27709;52.036;5.906;2024-02-21T09:22:38;12.10;99.90
42031;DHT22;27709;52.036;5.906;2024-02-21T09:25:05;12.00;99.90
42031;DHT22;27709;52.036;5.906;2024-02-21T09:27:31;11.90;99.90
42031;DHT22;27709;52.036;5.906;2024-02-21T09:29:57;11.90;99.90
42031;DHT22;27709;52.036;5.906;2024-02-21T09:32:22;11.90;99.90
42031;DHT22;27709;52.036;5.906;2024-02-21T09:34:48;12.00;99.90
42031;DHT22;27709;52.036;5.906;2024-02-21T09:37:13;12.00;99.90
42031;DHT22;27709;52.036;5.906;2024-02-21T09:39:39;12.20;99.90
42031;DHT22;27709;52.036;5.906;2024-02-21T09:42:11;12.10;99.90
42031;DHT22;27709;52.036;5.906;2024-02-21T09:44:37;12.10;99.90
42031;DHT22;27709;52.036;5.906;2024-02-21T09:47:22;12.10;99.90
42031;DHT22;27709;52.036;5.906;2024-02-21T09:49:50;12.10;99.90
42031;DHT22;27709;52.036;5.906;2024-02-21T09:52:17;12.10;99.90
42031;DHT22;27709;52.036;5.906;2024-02-21T09:54:44;12.20;99.90
42031;DHT22;27709;52.036;5.906;2024-02-21T09:57:13;12.30;99.90
42031;DHT22;27709;52.036;5.906;2024-02-21T09:59:39;12.30;99.90
42031;DHT22;27709;52.036;5.906;2024-02-21T10:02:07;12.30;99.90
42031;DHT22;27709;52.036;5.906;2024-02-21T10:04:33;12.30;99.90
42031;DHT22;27709;52.036;5.906;2024-02-21T10:06:58;12.30;99.90
42031;DHT22;27709;52.036;5.906;2024-02-21T10:09:25;12.20;99.90
42031;DHT22;27709;52.036;5.906;2024-02-21T10:11:55;12.30;99.90
42031;DHT22;27709;52.036;5.906;2024-02-21T10:14:21;12.30;99.90
42031;DHT22;27709;52.036;5.906;2024-02-21T10:16:58;12.30;99.90
42031;DHT22;27709;52.036;5.906;2024-02-21T10:19:28;12.40;99.90
42031;DHT22;27709;52.036;5.906;2024-02-21T10:22:08;12.40;99.90
42031;DHT22;27709;52.036;5.906;2024-02-21T10:24:34;12.60;99.90
42031;DHT22;27709;52.036;5.906;2024-02-21T10:27:02;12.60;99.90
42031;DHT22;27709;52.036;5.906;2024-02-21T10:29:32;12.60;99.90
42031;DHT22;27709;52.036;5.906;2024-02-21T10:32:08;12.60;99.90
42031;DHT22;27709;52.036;5.906;2024-02-21T10:34:35;12.70;99.90
42031;DHT22;27709;52.036;5.906;2024-02-21T10:37:05;12.70;99.90
42031;DHT22;27709;52.036;5.906;2024-02-21T10:39:32;12.70;99.90
42031;DHT22;27709;52.036;5.906;2024-02-21T10:42:00;12.50;99.90
42031;DHT22;27709;52.036;5.906;2024-02-21T10:44:31;12.40;99.90
42031;DHT22;27709;52.036;5.906;2024-02-21T10:46:57;12.40;99.90
42031;DHT22;27709;52.036;5.906;2024-02-21T10:49:25;12.40;99.90
42031;DHT22;27709;52.036;5.906;2024-02-21T10:51:55;12.30;99.90
42031;DHT22;27709;52.036;5.906;2024-02-21T10:57:03;12.20;99.90
42031;DHT22;27709;52.036;5.906;2024-02-21T10:59:30;12.20;99.90
42031;DHT22;27709;52.036;5.906;2024-02-21T11:01:57;12.10;99.90
42031;DHT22;27709;52.036;5.906;2024-02-21T11:04:24;12.10;99.90
42031;DHT22;27709;52.036;5.906;2024-02-21T11:06:50;12.10;99.90
42031;DHT22;27709;52.036;5.906;2024-02-21T11:09:16;12.20;99.90
42031;DHT22;27709;52.036;5.906;2024-02-21T11:11:43;12.20;99.90
42031;DHT22;27709;52.036;5.906;2024-02-21T11:14:21;12.20;99.90
42031;DHT22;27709;52.036;5.906;2024-02-21T11:16:47;12.30;99.90
42031;DHT22;27709;52.036;5.906;2024-02-21T11:19:21;12.30;99.90
42031;DHT22;27709;52.036;5.906;2024-02-21T11:21:50;12.30;99.90
42031;DHT22;27709;52.036;5.906;2024-02-21T11:24:29;12.30;99.90
42031;DHT22;27709;52.036;5.906;2024-02-21T11:26:56;12.30;99.90
42031;DHT22;27709;52.036;5.906;2024-02-21T11:29:25;12.30;99.90
42031;DHT22;27709;52.036;5.906;2024-02-21T11:31:51;12.30;99.90
42031;DHT22;27709;52.036;5.906;2024-02-21T11:34:18;12.20;99.90
42031;DHT22;27709;52.036;5.906;2024-02-21T11:36:53;12.20;99.90
42031;DHT22;27709;52.036;5.906;2024-02-21T11:39:20;12.30;99.90
42031;DHT22;27709;52.036;5.906;2024-02-21T11:41:48;12.30;99.90
42031;DHT22;27709;52.036;5.906;2024-02-21T11:44:24;12.30;99.90
42031;DHT22;27709;52.036;5.906;2024-02-21T11:46:49;12.30;99.90
42031;DHT22;27709;52.036;5.906;2024-02-21T11:49:15;12.20;99.90
42031;DHT22;27709;52.036;5.906;2024-02-21T11:51:40;12.20;99.90
42031;DHT22;27709;52.036;5.906;2024-02-21T11:54:06;12.20;99.90
42031;DHT22;27709;52.036;5.906;2024-02-21T11:56:32;12.10;99.90
42031;DHT22;27709;52.036;5.906;2024-02-21T11:58:58;12.10;99.90
42031;DHT22;27709;52.036;5.906;2024-02-21T12:01:24;12.10;99.90
42031;DHT22;27709;52.036;5.906;2024-02-21T12:03:53;12.00;99.90
42031;DHT22;27709;52.036;5.906;2024-02-21T12:06:18;11.90;99.90
42031;DHT22;27709;52.036;5.906;2024-02-21T12:08:46;11.90;99.90
42031;DHT22;27709;52.036;5.906;2024-02-21T12:11:22;11.80;99.90
42031;DHT22;27709;52.036;5.906;2024-02-21T12:14:02;11.80;99.90
42031;DHT22;27709;52.036;5.906;2024-02-21T12:16:29;11.90;99.90
42031;DHT22;27709;52.036;5.906;2024-02-21T12:18:59;11.90;99.90
42031;DHT22;27709;52.036;5.906;2024-02-21T12:21:33;12.00;99.90
42031;DHT22;27709;52.036;5.906;2024-02-21T12:24:23;12.10;99.90
42031;DHT22;27709;52.036;5.906;2024-02-21T12:26:55;12.30;99.90
42031;DHT22;27709;52.036;5.906;2024-02-21T12:29:22;12.30;99.90
42031;DHT22;27709;52.036;5.906;2024-02-21T12:31:50;12.40;99.90
42031;DHT22;27709;52.036;5.906;2024-02-21T12:34:16;12.50;99.90
42031;DHT22;27709;52.036;5.906;2024-02-21T12:36:44;12.60;99.90
42031;DHT22;27709;52.036;5.906;2024-02-21T12:39:10;12.70;99.90
42031;DHT22;27709;52.036;5.906;2024-02-21T12:41:37;12.90;99.90
42031;DHT22;27709;52.036;5.906;2024-02-21T12:44:11;13.00;99.90
42031;DHT22;27709;52.036;5.906;2024-02-21T12:46:38;13.10;99.60
42031;DHT22;27709;52.036;5.906;2024-02-21T12:49:05;13.10;99.40
42031;DHT22;27709;52.036;5.906;2024-02-21T12:51:31;13.10;99.20
42031;DHT22;27709;52.036;5.906;2024-02-21T12:53:57;13.20;99.50
42031;DHT22;27709;52.036;5.906;2024-02-21T12:56:22;13.20;99.40
42031;DHT22;27709;52.036;5.906;2024-02-21T12:58:50;13.20;99.20
42031;DHT22;27709;52.036;5.906;2024-02-21T13:01:16;13.20;98.80
42031;DHT22;27709;52.036;5.906;2024-02-21T13:03:41;13.20;99.00
42031;DHT22;27709;52.036;5.906;2024-02-21T13:06:07;13.20;98.90
42031;DHT22;27709;52.036;5.906;2024-02-21T13:08:39;13.10;98.80
42031;DHT22;27709;52.036;5.906;2024-02-21T13:11:06;13.10;98.90
42031;DHT22;27709;52.036;5.906;2024-02-21T13:13:31;13.10;99.20
42031;DHT22;27709;52.036;5.906;2024-02-21T13:15:58;13.10;99.20
42031;DHT22;27709;52.036;5.906;2024-02-21T13:18:24;13.20;99.10
42031;DHT22;27709;52.036;5.906;2024-02-21T13:20:49;13.10;99.00
42031;DHT22;27709;52.036;5.906;2024-02-21T13:23:15;13.10;98.90
42031;DHT22;27709;52.036;5.906;2024-02-21T13:25:48;13.10;99.10
42031;DHT22;27709;52.036;5.906;2024-02-21T13:28:16;13.10;99.00
42031;DHT22;27709;52.036;5.906;2024-02-21T13:30:43;13.10;99.20
42031;DHT22;27709;52.036;5.906;2024-02-21T13:33:08;13.10;99.00
42031;DHT22;27709;52.036;5.906;2024-02-21T13:35:38;13.20;99.00
42031;DHT22;27709;52.036;5.906;2024-02-21T13:38:04;13.20;98.90
42031;DHT22;27709;52.036;5.906;2024-02-21T13:40:30;13.20;99.00
42031;DHT22;27709;52.036;5.906;2024-02-21T13:42:55;13.10;98.80
42031;DHT22;27709;52.036;5.906;2024-02-21T13:45:21;13.10;99.10
42031;DHT22;27709;52.036;5.906;2024-02-21T13:47:47;13.20;99.00
42031;DHT22;27709;52.036;5.906;2024-02-21T13:50:14;13.30;98.80
42031;DHT22;27709;52.036;5.906;2024-02-21T13:52:43;13.30;98.90
42031;DHT22;27709;52.036;5.906;2024-02-21T13:55:08;13.30;98.70
42031;DHT22;27709;52.036;5.906;2024-02-21T13:57:37;13.20;98.80
42031;DHT22;27709;52.036;5.906;2024-02-21T14:00:03;13.20;98.70
42031;DHT22;27709;52.036;5.906;2024-02-21T14:02:30;13.20;99.10
42031;DHT22;27709;52.036;5.906;2024-02-21T14:04:59;13.20;99.00
42031;DHT22;27709;52.036;5.906;2024-02-21T14:07:25;13.10;99.00
42031;DHT22;27709;52.036;5.906;2024-02-21T14:09:50;13.10;99.10
42031;DHT22;27709;52.036;5.906;2024-02-21T14:12:16;13.10;99.10
42031;DHT22;27709;52.036;5.906;2024-02-21T14:14:58;13.00;99.00
42031;DHT22;27709;52.036;5.906;2024-02-21T14:17:26;13.00;99.10
42031;DHT22;27709;52.036;5.906;2024-02-21T14:19:52;13.10;99.10
42031;DHT22;27709;52.036;5.906;2024-02-21T14:22:22;13.10;99.10
42031;DHT22;27709;52.036;5.906;2024-02-21T14:24:48;13.10;99.10
42031;DHT22;27709;52.036;5.906;2024-02-21T14:27:14;13.20;98.90
42031;DHT22;27709;52.036;5.906;2024-02-21T14:29:39;13.10;99.00
42031;DHT22;27709;52.036;5.906;2024-02-21T14:32:05;13.10;99.00
42031;DHT22;27709;52.036;5.906;2024-02-21T14:34:32;13.00;99.00
42031;DHT22;27709;52.036;5.906;2024-02-21T14:36:59;13.10;98.90
42031;DHT22;27709;52.036;5.906;2024-02-21T14:39:25;13.10;98.70
42031;DHT22;27709;52.036;5.906;2024-02-21T14:41:57;13.10;98.50
42031;DHT22;27709;52.036;5.906;2024-02-21T14:44:25;13.10;98.20
42031;DHT22;27709;52.036;5.906;2024-02-21T14:46:53;13.00;98.20
42031;DHT22;27709;52.036;5.906;2024-02-21T14:49:19;12.90;98.10
42031;DHT22;27709;52.036;5.906;2024-02-21T14:51:45;12.80;98.30
42031;DHT22;27709;52.036;5.906;2024-02-21T14:54:11;12.70;98.20
42031;DHT22;27709;52.036;5.906;2024-02-21T14:56:36;12.70;98.30
42031;DHT22;27709;52.036;5.906;2024-02-21T14:59:02;12.70;98.30
42031;DHT22;27709;52.036;5.906;2024-02-21T15:01:36;12.70;98.50
42031;DHT22;27709;52.036;5.906;2024-02-21T15:04:05;12.70;98.50
42031;DHT22;27709;52.036;5.906;2024-02-21T15:06:31;12.70;98.60
42031;DHT22;27709;52.036;5.906;2024-02-21T15:08:57;12.70;98.60
42031;DHT22;27709;52.036;5.906;2024-02-21T15:11:23;12.70;98.50
42031;DHT22;27709;52.036;5.906;2024-02-21T15:13:49;12.70;98.60
42031;DHT22;27709;52.036;5.906;2024-02-21T15:16:18;12.70;98.80
42031;DHT22;27709;52.036;5.906;2024-02-21T15:18:51;12.60;98.70
42031;DHT22;27709;52.036;5.906;2024-02-21T15:21:17;12.60;98.90
42031;DHT22;27709;52.036;5.906;2024-02-21T15:23:44;12.50;99.00
42031;DHT22;27709;52.036;5.906;2024-02-21T15:26:10;12.50;99.20
42031;DHT22;27709;52.036;5.906;2024-02-21T15:28:35;12.50;99.40
42031;DHT22;27709;52.036;5.906;2024-02-21T15:31:01;12.50;99.60
42031;DHT22;27709;52.036;5.906;2024-02-21T15:33:26;12.40;99.50
42031;DHT22;27709;52.036;5.906;2024-02-21T15:35:52;12.40;99.60
42031;DHT22;27709;52.036;5.906;2024-02-21T15:38:18;12.40;99.90
42031;DHT22;27709;52.036;5.906;2024-02-21T15:40:47;12.20;99.90
42031;DHT22;27709;52.036;5.906;2024-02-21T15:43:13;12.20;99.90
42031;DHT22;27709;52.036;5.906;2024-02-21T15:45:38;12.10;99.90